sensor_id;sensor_type;location;lat;lon;timestamp;P1;durP1;ratioP1;P2;durP2;ratioP2
74124;SDS011;62475;52.192;5.396;2023-07-13T00:01:30;8.10;;;1.67;;
74124;SDS011;62475;52.192;5.396;2023-07-13T00:03:56;5.85;;;1.48;;
74124;SDS011;62475;52.192;5.396;2023-07-13T00:06:22;10.00;;;1.65;;
74124;SDS011;62475;52.192;5.396;2023-07-13T00:08:49;10.50;;;1.80;;
74124;SDS011;62475;52.192;5.396;2023-07-13T00:11:18;9.38;;;1.38;;
74124;SDS011;62475;52.192;5.396;2023-07-13T00:13:43;8.20;;;1.50;;
74124;SDS011;62475;52.192;5.396;2023-07-13T00:16:09;8.07;;;1.58;;
74124;SDS011;62475;52.192;5.396;2023-07-13T00:18:36;7.50;;;1.83;;
74124;SDS011;62475;52.192;5.396;2023-07-13T00:21:03;9.45;;;2.03;;
74124;SDS011;62475;52.192;5.396;2023-07-13T00:23:32;7.95;;;2.35;;
74124;SDS011;62475;52.192;5.396;2023-07-13T00:25:59;7.80;;;1.60;;
74124;SDS011;62475;52.192;5.396;2023-07-13T00:28:25;10.98;;;1.50;;
74124;SDS011;62475;52.192;5.396;2023-07-13T00:30:51;8.15;;;2.00;;
74124;SDS011;62475;52.192;5.396;2023-07-13T00:33:16;7.05;;;1.63;;
74124;SDS011;62475;52.192;5.396;2023-07-13T00:35:42;9.10;;;2.08;;
74124;SDS011;62475;52.192;5.396;2023-07-13T00:38:08;6.20;;;1.90;;
74124;SDS011;62475;52.192;5.396;2023-07-13T00:40:34;7.25;;;1.33;;
74124;SDS011;62475;52.192;5.396;2023-07-13T00:42:59;6.30;;;1.70;;
74124;SDS011;62475;52.192;5.396;2023-07-13T00:47:51;7.80;;;1.75;;
74124;SDS011;62475;52.192;5.396;2023-07-13T00:50:16;4.07;;;1.30;;
74124;SDS011;62475;52.192;5.396;2023-07-13T00:52:45;7.72;;;1.75;;
74124;SDS011;62475;52.192;5.396;2023-07-13T00:55:13;6.88;;;2.00;;
74124;SDS011;62475;52.192;5.396;2023-07-13T00:57:40;6.82;;;1.77;;
74124;SDS011;62475;52.192;5.396;2023-07-13T01:00:07;5.80;;;1.45;;
74124;SDS011;62475;52.192;5.396;2023-07-13T01:02:35;8.95;;;1.55;;
74124;SDS011;62475;52.192;5.396;2023-07-13T01:05:11;8.00;;;2.53;;
74124;SDS011;62475;52.192;5.396;2023-07-13T01:07:39;10.80;;;1.80;;
74124;SDS011;62475;52.192;5.396;2023-07-13T01:10:06;8.82;;;1.63;;
74124;SDS011;62475;52.192;5.396;2023-07-13T01:12:32;9.18;;;1.83;;
74124;SDS011;62475;52.192;5.396;2023-07-13T01:15:01;6.20;;;2.10;;
74124;SDS011;62475;52.192;5.396;2023-07-13T01:17:27;6.72;;;1.75;;
74124;SDS011;62475;52.192;5.396;2023-07-13T01:19:54;6.65;;;1.48;;
74124;SDS011;62475;52.192;5.396;2023-07-13T01:22:19;9.85;;;1.73;;
74124;SDS011;62475;52.192;5.396;2023-07-13T01:24:51;5.80;;;1.45;;
74124;SDS011;62475;52.192;5.396;2023-07-13T01:27:22;8.55;;;1.73;;
74124;SDS011;62475;52.192;5.396;2023-07-13T01:29:53;5.80;;;1.73;;
74124;SDS011;62475;52.192;5.396;2023-07-13T01:32:26;7.68;;;1.60;;
74124;SDS011;62475;52.192;5.396;2023-07-13T01:34:52;4.47;;;2.08;;
74124;SDS011;62475;52.192;5.396;2023-07-13T01:37:19;5.93;;;1.40;;
74124;SDS011;62475;52.192;5.396;2023-07-13T01:39:45;3.13;;;1.20;;
74124;SDS011;62475;52.192;5.396;2023-07-13T01:42:16;7.75;;;1.60;;
74124;SDS011;62475;52.192;5.396;2023-07-13T01:44:41;12.23;;;2.38;;
74124;SDS011;62475;52.192;5.396;2023-07-13T01:47:07;9.10;;;1.65;;
74124;SDS011;62475;52.192;5.396;2023-07-13T01:49:34;5.95;;;1.80;;
74124;SDS011;62475;52.192;5.396;2023-07-13T01:51:59;6.88;;;2.00;;
74124;SDS011;62475;52.192;5.396;2023-07-13T01:54:25;5.22;;;2.03;;
74124;SDS011;62475;52.192;5.396;2023-07-13T01:56:50;8.25;;;1.90;;
74124;SDS011;62475;52.192;5.396;2023-07-13T01:59:17;6.30;;;1.65;;
74124;SDS011;62475;52.192;5.396;2023-07-13T02:01:43;10.32;;;2.08;;
74124;SDS011;62475;52.192;5.396;2023-07-13T02:04:10;6.07;;;1.70;;
74124;SDS011;62475;52.192;5.396;2023-07-13T02:06:35;8.77;;;1.90;;
74124;SDS011;62475;52.192;5.396;2023-07-13T02:09:01;6.93;;;1.80;;
74124;SDS011;62475;52.192;5.396;2023-07-13T02:11:27;7.57;;;1.90;;
74124;SDS011;62475;52.192;5.396;2023-07-13T02:13:59;8.25;;;1.95;;
74124;SDS011;62475;52.192;5.396;2023-07-13T02:18:58;6.82;;;1.73;;
74124;SDS011;62475;52.192;5.396;2023-07-13T02:21:25;7.30;;;3.53;;
74124;SDS011;62475;52.192;5.396;2023-07-13T02:23:52;6.70;;;1.63;;
74124;SDS011;62475;52.192;5.396;2023-07-13T02:26:17;8.85;;;2.10;;
74124;SDS011;62475;52.192;5.396;2023-07-13T02:28:44;6.43;;;1.80;;
74124;SDS011;62475;52.192;5.396;2023-07-13T02:31:11;8.20;;;2.35;;
74124;SDS011;62475;52.192;5.396;2023-07-13T02:33:38;7.43;;;2.30;;
74124;SDS011;62475;52.192;5.396;2023-07-13T02:36:04;5.55;;;1.55;;
74124;SDS011;62475;52.192;5.396;2023-07-13T02:38:32;11.70;;;2.90;;
74124;SDS011;62475;52.192;5.396;2023-07-13T02:41:00;9.32;;;2.22;;
74124;SDS011;62475;52.192;5.396;2023-07-13T02:43:26;8.23;;;2.55;;
74124;SDS011;62475;52.192;5.396;2023-07-13T02:45:52;9.98;;;2.60;;
74124;SDS011;62475;52.192;5.396;2023-07-13T02:48:17;7.93;;;2.20;;
74124;SDS011;62475;52.192;5.396;2023-07-13T02:50:44;9.57;;;1.95;;
74124;SDS011;62475;52.192;5.396;2023-07-13T02:53:10;8.27;;;1.95;;
74124;SDS011;62475;52.192;5.396;2023-07-13T02:55:35;10.57;;;2.60;;
74124;SDS011;62475;52.192;5.396;2023-07-13T02:58:01;12.48;;;2.15;;
74124;SDS011;62475;52.192;5.396;2023-07-13T03:00:26;8.10;;;2.28;;
74124;SDS011;62475;52.192;5.396;2023-07-13T03:02:52;9.02;;;2.60;;
74124;SDS011;62475;52.192;5.396;2023-07-13T03:05:18;8.57;;;2.30;;
74124;SDS011;62475;52.192;5.396;2023-07-13T03:07:44;8.13;;;2.75;;
74124;SDS011;62475;52.192;5.396;2023-07-13T03:10:09;5.75;;;2.22;;
74124;SDS011;62475;52.192;5.396;2023-07-13T03:12:35;8.93;;;2.60;;
74124;SDS011;62475;52.192;5.396;2023-07-13T03:15:00;6.75;;;2.30;;
74124;SDS011;62475;52.192;5.396;2023-07-13T03:17:26;8.80;;;2.72;;
74124;SDS011;62475;52.192;5.396;2023-07-13T03:19:51;14.82;;;2.70;;
74124;SDS011;62475;52.192;5.396;2023-07-13T03:22:17;10.23;;;2.65;;
74124;SDS011;62475;52.192;5.396;2023-07-13T03:24:43;11.70;;;2.72;;
74124;SDS011;62475;52.192;5.396;2023-07-13T03:27:09;12.75;;;2.53;;
74124;SDS011;62475;52.192;5.396;2023-07-13T03:29:35;6.68;;;2.53;;
74124;SDS011;62475;52.192;5.396;2023-07-13T03:32:00;14.15;;;2.63;;
74124;SDS011;62475;52.192;5.396;2023-07-13T03:34:25;8.18;;;2.28;;
74124;SDS011;62475;52.192;5.396;2023-07-13T03:36:53;13.70;;;3.42;;
74124;SDS011;62475;52.192;5.396;2023-07-13T03:39:20;12.55;;;2.90;;
74124;SDS011;62475;52.192;5.396;2023-07-13T03:41:45;9.38;;;2.53;;
74124;SDS011;62475;52.192;5.396;2023-07-13T03:44:11;9.85;;;2.85;;
74124;SDS011;62475;52.192;5.396;2023-07-13T03:46:36;10.60;;;2.58;;
74124;SDS011;62475;52.192;5.396;2023-07-13T03:49:03;11.88;;;2.90;;
74124;SDS011;62475;52.192;5.396;2023-07-13T03:51:30;11.00;;;2.67;;
74124;SDS011;62475;52.192;5.396;2023-07-13T03:53:55;13.60;;;3.17;;
74124;SDS011;62475;52.192;5.396;2023-07-13T03:56:22;10.32;;;2.50;;
74124;SDS011;62475;52.192;5.396;2023-07-13T03:58:51;11.00;;;2.60;;
74124;SDS011;62475;52.192;5.396;2023-07-13T04:01:17;8.15;;;2.53;;
74124;SDS011;62475;52.192;5.396;2023-07-13T04:03:44;8.73;;;2.65;;
74124;SDS011;62475;52.192;5.396;2023-07-13T04:06:13;12.60;;;2.30;;
74124;SDS011;62475;52.192;5.396;2023-07-13T04:08:46;9.63;;;2.67;;
74124;SDS011;62475;52.192;5.396;2023-07-13T04:11:14;9.23;;;3.08;;
74124;SDS011;62475;52.192;5.396;2023-07-13T04:13:40;10.15;;;3.20;;
74124;SDS011;62475;52.192;5.396;2023-07-13T04:16:05;13.00;;;2.70;;
74124;SDS011;62475;52.192;5.396;2023-07-13T04:18:31;9.68;;;2.75;;
74124;SDS011;62475;52.192;5.396;2023-07-13T04:20:56;14.43;;;2.78;;
74124;SDS011;62475;52.192;5.396;2023-07-13T04:23:23;12.35;;;3.00;;
74124;SDS011;62475;52.192;5.396;2023-07-13T04:25:49;10.05;;;2.58;;
74124;SDS011;62475;52.192;5.396;2023-07-13T04:28:21;15.05;;;3.13;;
74124;SDS011;62475;52.192;5.396;2023-07-13T04:30:48;16.83;;;3.30;;
74124;SDS011;62475;52.192;5.396;2023-07-13T04:33:14;18.85;;;3.15;;
74124;SDS011;62475;52.192;5.396;2023-07-13T04:35:39;12.68;;;3.63;;
74124;SDS011;62475;52.192;5.396;2023-07-13T04:38:05;15.15;;;3.72;;
74124;SDS011;62475;52.192;5.396;2023-07-13T04:40:31;14.25;;;3.63;;
74124;SDS011;62475;52.192;5.396;2023-07-13T04:42:56;14.93;;;4.07;;
74124;SDS011;62475;52.192;5.396;2023-07-13T04:45:22;16.50;;;4.45;;
74124;SDS011;62475;52.192;5.396;2023-07-13T04:47:49;13.57;;;3.45;;
74124;SDS011;62475;52.192;5.396;2023-07-13T04:50:14;15.52;;;4.60;;
74124;SDS011;62475;52.192;5.396;2023-07-13T04:55:09;15.75;;;4.30;;
74124;SDS011;62475;52.192;5.396;2023-07-13T04:57:34;19.75;;;5.18;;
74124;SDS011;62475;52.192;5.396;2023-07-13T05:00:00;17.05;;;5.00;;
74124;SDS011;62475;52.192;5.396;2023-07-13T05:02:30;16.85;;;4.55;;
74124;SDS011;62475;52.192;5.396;2023-07-13T05:04:56;14.93;;;4.50;;
74124;SDS011;62475;52.192;5.396;2023-07-13T05:07:22;18.00;;;5.32;;
74124;SDS011;62475;52.192;5.396;2023-07-13T05:09:47;14.02;;;4.97;;
74124;SDS011;62475;52.192;5.396;2023-07-13T05:12:16;12.82;;;4.53;;
74124;SDS011;62475;52.192;5.396;2023-07-13T05:14:41;14.15;;;4.85;;
74124;SDS011;62475;52.192;5.396;2023-07-13T05:17:06;17.85;;;5.38;;
74124;SDS011;62475;52.192;5.396;2023-07-13T05:19:32;17.90;;;5.00;;
74124;SDS011;62475;52.192;5.396;2023-07-13T05:21:58;11.25;;;4.78;;
74124;SDS011;62475;52.192;5.396;2023-07-13T05:24:23;14.23;;;5.18;;
74124;SDS011;62475;52.192;5.396;2023-07-13T05:26:49;17.45;;;5.38;;
74124;SDS011;62475;52.192;5.396;2023-07-13T05:29:14;19.80;;;5.72;;
74124;SDS011;62475;52.192;5.396;2023-07-13T05:31:40;14.20;;;5.82;;
74124;SDS011;62475;52.192;5.396;2023-07-13T05:34:05;21.80;;;5.57;;
74124;SDS011;62475;52.192;5.396;2023-07-13T05:36:31;15.73;;;6.35;;
74124;SDS011;62475;52.192;5.396;2023-07-13T05:38:56;14.55;;;5.53;;
74124;SDS011;62475;52.192;5.396;2023-07-13T05:41:21;18.50;;;6.07;;
74124;SDS011;62475;52.192;5.396;2023-07-13T05:43:47;12.82;;;5.78;;
74124;SDS011;62475;52.192;5.396;2023-07-13T05:46:12;10.30;;;5.18;;
74124;SDS011;62475;52.192;5.396;2023-07-13T05:48:38;13.60;;;5.18;;
74124;SDS011;62475;52.192;5.396;2023-07-13T05:51:03;18.73;;;5.78;;
74124;SDS011;62475;52.192;5.396;2023-07-13T05:53:29;15.95;;;6.05;;
74124;SDS011;62475;52.192;5.396;2023-07-13T05:55:54;22.77;;;7.30;;
74124;SDS011;62475;52.192;5.396;2023-07-13T05:58:20;23.17;;;6.07;;
74124;SDS011;62475;52.192;5.396;2023-07-13T06:00:47;13.10;;;5.85;;
74124;SDS011;62475;52.192;5.396;2023-07-13T06:03:13;13.50;;;6.15;;
74124;SDS011;62475;52.192;5.396;2023-07-13T06:05:38;13.13;;;6.65;;
74124;SDS011;62475;52.192;5.396;2023-07-13T06:08:05;19.77;;;6.72;;
74124;SDS011;62475;52.192;5.396;2023-07-13T06:10:35;16.55;;;5.78;;
74124;SDS011;62475;52.192;5.396;2023-07-13T06:13:01;15.00;;;6.55;;
74124;SDS011;62475;52.192;5.396;2023-07-13T06:15:28;17.15;;;7.38;;
74124;SDS011;62475;52.192;5.396;2023-07-13T06:17:53;17.23;;;6.97;;
74124;SDS011;62475;52.192;5.396;2023-07-13T06:20:19;16.80;;;6.78;;
74124;SDS011;62475;52.192;5.396;2023-07-13T06:22:46;18.65;;;6.38;;
74124;SDS011;62475;52.192;5.396;2023-07-13T06:25:11;19.60;;;6.57;;
74124;SDS011;62475;52.192;5.396;2023-07-13T06:27:36;12.35;;;6.00;;
74124;SDS011;62475;52.192;5.396;2023-07-13T06:30:03;15.63;;;7.18;;
74124;SDS011;62475;52.192;5.396;2023-07-13T06:32:29;10.60;;;6.57;;
74124;SDS011;62475;52.192;5.396;2023-07-13T06:34:55;17.60;;;7.30;;
74124;SDS011;62475;52.192;5.396;2023-07-13T06:37:20;15.48;;;6.60;;
74124;SDS011;62475;52.192;5.396;2023-07-13T06:39:46;20.25;;;6.80;;
74124;SDS011;62475;52.192;5.396;2023-07-13T06:42:11;18.58;;;6.30;;
74124;SDS011;62475;52.192;5.396;2023-07-13T06:44:37;14.60;;;6.28;;
74124;SDS011;62475;52.192;5.396;2023-07-13T06:47:04;12.77;;;5.68;;
74124;SDS011;62475;52.192;5.396;2023-07-13T06:49:29;15.60;;;6.72;;
74124;SDS011;62475;52.192;5.396;2023-07-13T06:51:55;16.20;;;6.32;;
74124;SDS011;62475;52.192;5.396;2023-07-13T06:54:20;16.15;;;5.97;;
74124;SDS011;62475;52.192;5.396;2023-07-13T06:56:46;19.17;;;6.53;;
74124;SDS011;62475;52.192;5.396;2023-07-13T06:59:11;20.75;;;6.05;;
74124;SDS011;62475;52.192;5.396;2023-07-13T07:01:37;18.08;;;6.70;;
74124;SDS011;62475;52.192;5.396;2023-07-13T07:04:03;14.82;;;6.43;;
74124;SDS011;62475;52.192;5.396;2023-07-13T07:06:29;21.48;;;6.65;;
74124;SDS011;62475;52.192;5.396;2023-07-13T07:08:54;17.45;;;7.22;;
74124;SDS011;62475;52.192;5.396;2023-07-13T07:11:21;16.25;;;6.93;;
74124;SDS011;62475;52.192;5.396;2023-07-13T07:13:49;16.80;;;6.80;;
74124;SDS011;62475;52.192;5.396;2023-07-13T07:16:16;17.80;;;7.40;;
74124;SDS011;62475;52.192;5.396;2023-07-13T07:18:42;16.38;;;7.28;;
74124;SDS011;62475;52.192;5.396;2023-07-13T07:21:07;20.67;;;7.90;;
74124;SDS011;62475;52.192;5.396;2023-07-13T07:23:33;20.75;;;7.90;;
74124;SDS011;62475;52.192;5.396;2023-07-13T07:25:58;16.58;;;7.60;;
74124;SDS011;62475;52.192;5.396;2023-07-13T07:28:24;19.17;;;8.27;;
74124;SDS011;62475;52.192;5.396;2023-07-13T07:30:52;20.35;;;8.52;;
74124;SDS011;62475;52.192;5.396;2023-07-13T07:33:18;23.95;;;9.35;;
74124;SDS011;62475;52.192;5.396;2023-07-13T07:35:43;24.08;;;9.35;;
74124;SDS011;62475;52.192;5.396;2023-07-13T07:38:09;16.38;;;7.85;;
74124;SDS011;62475;52.192;5.396;2023-07-13T07:40:38;16.67;;;8.80;;
74124;SDS011;62475;52.192;5.396;2023-07-13T07:43:07;21.90;;;8.45;;
74124;SDS011;62475;52.192;5.396;2023-07-13T07:45:33;16.15;;;7.00;;
74124;SDS011;62475;52.192;5.396;2023-07-13T07:47:59;15.48;;;6.20;;
74124;SDS011;62475;52.192;5.396;2023-07-13T07:50:28;14.75;;;6.18;;
74124;SDS011;62475;52.192;5.396;2023-07-13T07:52:53;12.00;;;6.47;;
74124;SDS011;62475;52.192;5.396;2023-07-13T07:55:22;11.25;;;5.15;;
74124;SDS011;62475;52.192;5.396;2023-07-13T07:57:48;11.18;;;6.07;;
74124;SDS011;62475;52.192;5.396;2023-07-13T08:00:14;12.85;;;6.57;;
74124;SDS011;62475;52.192;5.396;2023-07-13T08:02:40;10.90;;;6.35;;
74124;SDS011;62475;52.192;5.396;2023-07-13T08:05:06;19.65;;;8.10;;
74124;SDS011;62475;52.192;5.396;2023-07-13T08:07:33;19.00;;;8.13;;
74124;SDS011;62475;52.192;5.396;2023-07-13T08:09:59;18.00;;;8.95;;
74124;SDS011;62475;52.192;5.396;2023-07-13T08:12:24;18.30;;;8.10;;
74124;SDS011;62475;52.192;5.396;2023-07-13T08:14:50;15.68;;;7.65;;
74124;SDS011;62475;52.192;5.396;2023-07-13T08:17:22;16.58;;;8.40;;
74124;SDS011;62475;52.192;5.396;2023-07-13T08:19:48;16.27;;;7.43;;
74124;SDS011;62475;52.192;5.396;2023-07-13T08:22:14;11.10;;;5.63;;
74124;SDS011;62475;52.192;5.396;2023-07-13T08:24:40;14.32;;;5.60;;
74124;SDS011;62475;52.192;5.396;2023-07-13T08:27:07;10.10;;;4.65;;
74124;SDS011;62475;52.192;5.396;2023-07-13T08:29:32;12.27;;;4.72;;
74124;SDS011;62475;52.192;5.396;2023-07-13T08:31:58;10.30;;;4.22;;
74124;SDS011;62475;52.192;5.396;2023-07-13T08:34:23;13.20;;;4.55;;
74124;SDS011;62475;52.192;5.396;2023-07-13T08:36:49;9.07;;;4.07;;
74124;SDS011;62475;52.192;5.396;2023-07-13T08:39:14;11.18;;;4.25;;
74124;SDS011;62475;52.192;5.396;2023-07-13T08:41:41;12.43;;;4.60;;
74124;SDS011;62475;52.192;5.396;2023-07-13T08:44:18;17.00;;;4.63;;
74124;SDS011;62475;52.192;5.396;2023-07-13T08:46:52;11.68;;;5.80;;
74124;SDS011;62475;52.192;5.396;2023-07-13T08:49:21;11.00;;;5.25;;
74124;SDS011;62475;52.192;5.396;2023-07-13T08:54:41;14.13;;;5.15;;
74124;SDS011;62475;52.192;5.396;2023-07-13T08:57:15;4.45;;;2.30;;
74124;SDS011;62475;52.192;5.396;2023-07-13T08:59:44;5.82;;;3.25;;
74124;SDS011;62475;52.192;5.396;2023-07-13T09:04:59;4.68;;;2.95;;
74124;SDS011;62475;52.192;5.396;2023-07-13T09:10:23;6.50;;;2.90;;
74124;SDS011;62475;52.192;5.396;2023-07-13T09:13:07;5.10;;;2.45;;
74124;SDS011;62475;52.192;5.396;2023-07-13T09:15:45;5.13;;;2.70;;
74124;SDS011;62475;52.192;5.396;2023-07-13T09:21:05;4.38;;;2.40;;
74124;SDS011;62475;52.192;5.396;2023-07-13T09:23:36;3.60;;;2.10;;
74124;SDS011;62475;52.192;5.396;2023-07-13T09:26:06;7.00;;;2.40;;
74124;SDS011;62475;52.192;5.396;2023-07-13T09:28:41;4.03;;;2.17;;
74124;SDS011;62475;52.192;5.396;2023-07-13T09:31:11;7.55;;;2.78;;
74124;SDS011;62475;52.192;5.396;2023-07-13T09:33:41;4.95;;;3.10;;
74124;SDS011;62475;52.192;5.396;2023-07-13T09:38:44;7.65;;;5.10;;
74124;SDS011;62475;52.192;5.396;2023-07-13T09:46:54;8.95;;;4.57;;
74124;SDS011;62475;52.192;5.396;2023-07-13T09:49:25;10.73;;;5.00;;
74124;SDS011;62475;52.192;5.396;2023-07-13T09:51:57;12.75;;;5.97;;
74124;SDS011;62475;52.192;5.396;2023-07-13T09:54:29;13.57;;;5.93;;
74124;SDS011;62475;52.192;5.396;2023-07-13T09:56:58;9.30;;;5.93;;
74124;SDS011;62475;52.192;5.396;2023-07-13T09:59:28;8.73;;;5.35;;
74124;SDS011;62475;52.192;5.396;2023-07-13T10:01:56;12.05;;;5.95;;
74124;SDS011;62475;52.192;5.396;2023-07-13T10:04:27;8.85;;;6.35;;
74124;SDS011;62475;52.192;5.396;2023-07-13T10:07:04;12.20;;;6.85;;
74124;SDS011;62475;52.192;5.396;2023-07-13T10:09:32;4.72;;;2.83;;
74124;SDS011;62475;52.192;5.396;2023-07-13T10:11:57;5.80;;;2.95;;
74124;SDS011;62475;52.192;5.396;2023-07-13T10:14:23;5.57;;;3.15;;
74124;SDS011;62475;52.192;5.396;2023-07-13T10:16:51;5.15;;;3.20;;
74124;SDS011;62475;52.192;5.396;2023-07-13T10:19:26;8.40;;;3.45;;
74124;SDS011;62475;52.192;5.396;2023-07-13T10:24:32;4.60;;;3.22;;
74124;SDS011;62475;52.192;5.396;2023-07-13T10:27:09;6.93;;;3.75;;
74124;SDS011;62475;52.192;5.396;2023-07-13T10:29:48;6.43;;;3.25;;
74124;SDS011;62475;52.192;5.396;2023-07-13T10:32:26;5.93;;;3.78;;
74124;SDS011;62475;52.192;5.396;2023-07-13T10:34:52;7.00;;;3.28;;
74124;SDS011;62475;52.192;5.396;2023-07-13T10:37:24;11.68;;;3.95;;
74124;SDS011;62475;52.192;5.396;2023-07-13T10:39:55;6.10;;;3.40;;
74124;SDS011;62475;52.192;5.396;2023-07-13T10:42:29;7.07;;;3.30;;
74124;SDS011;62475;52.192;5.396;2023-07-13T10:44:59;6.32;;;3.33;;
74124;SDS011;62475;52.192;5.396;2023-07-13T10:47:24;6.97;;;3.45;;
74124;SDS011;62475;52.192;5.396;2023-07-13T10:49:52;7.28;;;3.20;;
74124;SDS011;62475;52.192;5.396;2023-07-13T10:55:05;6.63;;;3.47;;
74124;SDS011;62475;52.192;5.396;2023-07-13T10:57:36;10.90;;;3.25;;
74124;SDS011;62475;52.192;5.396;2023-07-13T11:00:17;4.70;;;3.03;;
74124;SDS011;62475;52.192;5.396;2023-07-13T11:02:43;6.53;;;3.20;;
74124;SDS011;62475;52.192;5.396;2023-07-13T11:05:26;8.88;;;3.17;;
74124;SDS011;62475;52.192;5.396;2023-07-13T11:07:56;6.90;;;4.65;;
74124;SDS011;62475;52.192;5.396;2023-07-13T11:10:52;8.73;;;5.25;;
74124;SDS011;62475;52.192;5.396;2023-07-13T11:19:23;6.20;;;3.90;;
74124;SDS011;62475;52.192;5.396;2023-07-13T11:27:36;6.32;;;3.50;;
74124;SDS011;62475;52.192;5.396;2023-07-13T11:40:55;8.45;;;3.67;;
74124;SDS011;62475;52.192;5.396;2023-07-13T11:43:24;8.13;;;4.00;;
74124;SDS011;62475;52.192;5.396;2023-07-13T11:45:51;10.98;;;5.05;;
74124;SDS011;62475;52.192;5.396;2023-07-13T11:48:24;5.95;;;4.35;;
74124;SDS011;62475;52.192;5.396;2023-07-13T11:50:53;10.63;;;5.45;;
74124;SDS011;62475;52.192;5.396;2023-07-13T11:53:22;10.77;;;5.03;;
74124;SDS011;62475;52.192;5.396;2023-07-13T11:55:53;9.25;;;3.97;;
74124;SDS011;62475;52.192;5.396;2023-07-13T11:58:19;9.50;;;3.83;;
74124;SDS011;62475;52.192;5.396;2023-07-13T12:00:48;8.10;;;4.00;;
74124;SDS011;62475;52.192;5.396;2023-07-13T12:03:15;8.85;;;3.15;;
74124;SDS011;62475;52.192;5.396;2023-07-13T12:05:58;10.80;;;4.15;;
74124;SDS011;62475;52.192;5.396;2023-07-13T12:08:29;6.78;;;2.72;;
74124;SDS011;62475;52.192;5.396;2023-07-13T12:11:03;8.85;;;2.92;;
74124;SDS011;62475;52.192;5.396;2023-07-13T12:13:34;5.15;;;3.13;;
74124;SDS011;62475;52.192;5.396;2023-07-13T12:16:07;10.10;;;3.83;;
74124;SDS011;62475;52.192;5.396;2023-07-13T12:18:37;6.22;;;2.47;;
74124;SDS011;62475;52.192;5.396;2023-07-13T12:21:03;5.85;;;2.45;;
74124;SDS011;62475;52.192;5.396;2023-07-13T12:30:59;7.60;;;3.03;;
74124;SDS011;62475;52.192;5.396;2023-07-13T12:33:32;5.25;;;2.40;;
74124;SDS011;62475;52.192;5.396;2023-07-13T12:36:02;3.58;;;2.20;;
74124;SDS011;62475;52.192;5.396;2023-07-13T12:38:31;4.97;;;2.50;;
74124;SDS011;62475;52.192;5.396;2023-07-13T12:40:57;7.47;;;2.60;;
74124;SDS011;62475;52.192;5.396;2023-07-13T12:43:23;5.00;;;2.17;;
74124;SDS011;62475;52.192;5.396;2023-07-13T12:45:59;5.43;;;2.40;;
74124;SDS011;62475;52.192;5.396;2023-07-13T12:48:28;4.57;;;2.20;;
74124;SDS011;62475;52.192;5.396;2023-07-13T12:50:54;4.63;;;2.13;;
74124;SDS011;62475;52.192;5.396;2023-07-13T12:53:28;4.20;;;1.80;;
74124;SDS011;62475;52.192;5.396;2023-07-13T12:56:01;7.40;;;2.00;;
74124;SDS011;62475;52.192;5.396;2023-07-13T12:58:38;3.95;;;2.10;;
74124;SDS011;62475;52.192;5.396;2023-07-13T13:01:10;4.28;;;2.10;;
74124;SDS011;62475;52.192;5.396;2023-07-13T13:03:39;4.43;;;2.00;;
74124;SDS011;62475;52.192;5.396;2023-07-13T13:06:17;4.00;;;1.80;;
74124;SDS011;62475;52.192;5.396;2023-07-13T13:08:49;4.47;;;1.80;;
74124;SDS011;62475;52.192;5.396;2023-07-13T13:11:17;5.90;;;2.33;;
74124;SDS011;62475;52.192;5.396;2023-07-13T13:13:43;6.05;;;1.85;;
74124;SDS011;62475;52.192;5.396;2023-07-13T13:18:50;7.25;;;1.90;;
74124;SDS011;62475;52.192;5.396;2023-07-13T13:21:16;2.95;;;2.15;;
74124;SDS011;62475;52.192;5.396;2023-07-13T13:23:43;5.07;;;2.03;;
74124;SDS011;62475;52.192;5.396;2023-07-13T13:26:10;5.60;;;2.25;;
74124;SDS011;62475;52.192;5.396;2023-07-13T13:28:37;7.25;;;2.65;;
74124;SDS011;62475;52.192;5.396;2023-07-13T13:31:02;7.47;;;2.35;;
74124;SDS011;62475;52.192;5.396;2023-07-13T13:33:27;4.70;;;2.33;;
74124;SDS011;62475;52.192;5.396;2023-07-13T13:35:53;3.70;;;2.03;;
74124;SDS011;62475;52.192;5.396;2023-07-13T13:38:25;4.15;;;2.15;;
74124;SDS011;62475;52.192;5.396;2023-07-13T13:40:52;6.28;;;2.22;;
74124;SDS011;62475;52.192;5.396;2023-07-13T13:43:21;3.83;;;2.47;;
74124;SDS011;62475;52.192;5.396;2023-07-13T13:45:51;7.45;;;2.42;;
74124;SDS011;62475;52.192;5.396;2023-07-13T13:48:20;5.78;;;2.28;;
74124;SDS011;62475;52.192;5.396;2023-07-13T13:50:58;8.25;;;2.63;;
74124;SDS011;62475;52.192;5.396;2023-07-13T13:53:26;8.73;;;2.45;;
74124;SDS011;62475;52.192;5.396;2023-07-13T13:55:51;3.95;;;2.42;;
74124;SDS011;62475;52.192;5.396;2023-07-13T13:58:19;5.85;;;2.25;;
74124;SDS011;62475;52.192;5.396;2023-07-13T14:00:45;4.07;;;1.80;;
74124;SDS011;62475;52.192;5.396;2023-07-13T14:03:14;5.90;;;2.10;;
74124;SDS011;62475;52.192;5.396;2023-07-13T14:05:42;6.40;;;1.80;;
74124;SDS011;62475;52.192;5.396;2023-07-13T14:08:12;6.45;;;2.10;;
74124;SDS011;62475;52.192;5.396;2023-07-13T14:10:39;5.97;;;2.35;;
74124;SDS011;62475;52.192;5.396;2023-07-13T14:13:07;6.40;;;2.25;;
74124;SDS011;62475;52.192;5.396;2023-07-13T14:15:46;4.32;;;2.00;;
74124;SDS011;62475;52.192;5.396;2023-07-13T14:18:12;4.40;;;2.13;;
74124;SDS011;62475;52.192;5.396;2023-07-13T14:20:43;5.38;;;1.98;;
74124;SDS011;62475;52.192;5.396;2023-07-13T14:23:13;4.30;;;1.92;;
74124;SDS011;62475;52.192;5.396;2023-07-13T14:25:40;4.85;;;2.08;;
74124;SDS011;62475;52.192;5.396;2023-07-13T14:30:48;3.38;;;2.10;;
74124;SDS011;62475;52.192;5.396;2023-07-13T14:33:15;3.53;;;1.58;;
74124;SDS011;62475;52.192;5.396;2023-07-13T14:35:40;5.70;;;2.70;;
74124;SDS011;62475;52.192;5.396;2023-07-13T14:38:08;4.18;;;2.05;;
74124;SDS011;62475;52.192;5.396;2023-07-13T14:40:36;5.45;;;2.03;;
74124;SDS011;62475;52.192;5.396;2023-07-13T14:43:03;5.10;;;1.98;;
74124;SDS011;62475;52.192;5.396;2023-07-13T14:45:28;3.40;;;1.63;;
74124;SDS011;62475;52.192;5.396;2023-07-13T14:47:56;4.53;;;1.63;;
74124;SDS011;62475;52.192;5.396;2023-07-13T14:50:28;3.25;;;1.80;;
74124;SDS011;62475;52.192;5.396;2023-07-13T14:52:58;6.22;;;1.67;;
74124;SDS011;62475;52.192;5.396;2023-07-13T14:55:24;4.15;;;1.67;;
74124;SDS011;62475;52.192;5.396;2023-07-13T14:57:51;4.78;;;2.25;;
74124;SDS011;62475;52.192;5.396;2023-07-13T15:00:20;7.35;;;2.00;;
74124;SDS011;62475;52.192;5.396;2023-07-13T15:02:50;4.18;;;1.67;;
74124;SDS011;62475;52.192;5.396;2023-07-13T15:05:22;5.22;;;1.75;;
74124;SDS011;62475;52.192;5.396;2023-07-13T15:07:56;7.32;;;1.70;;
74124;SDS011;62475;52.192;5.396;2023-07-13T15:10:25;4.88;;;2.08;;
74124;SDS011;62475;52.192;5.396;2023-07-13T15:12:58;2.85;;;1.90;;
74124;SDS011;62475;52.192;5.396;2023-07-13T15:15:26;5.40;;;1.70;;
74124;SDS011;62475;52.192;5.396;2023-07-13T15:17:56;4.03;;;1.50;;
74124;SDS011;62475;52.192;5.396;2023-07-13T15:22:54;6.45;;;1.70;;
74124;SDS011;62475;52.192;5.396;2023-07-13T15:25:23;3.13;;;1.35;;
74124;SDS011;62475;52.192;5.396;2023-07-13T15:27:50;5.30;;;1.73;;
74124;SDS011;62475;52.192;5.396;2023-07-13T15:30:17;3.22;;;1.40;;
74124;SDS011;62475;52.192;5.396;2023-07-13T15:32:43;3.38;;;1.63;;
74124;SDS011;62475;52.192;5.396;2023-07-13T15:35:21;4.72;;;1.92;;
74124;SDS011;62475;52.192;5.396;2023-07-13T15:37:51;3.05;;;1.58;;
74124;SDS011;62475;52.192;5.396;2023-07-13T15:40:18;2.38;;;1.40;;
74124;SDS011;62475;52.192;5.396;2023-07-13T15:42:46;3.72;;;1.25;;
74124;SDS011;62475;52.192;5.396;2023-07-13T15:47:46;2.58;;;1.30;;
74124;SDS011;62475;52.192;5.396;2023-07-13T15:50:16;2.70;;;1.17;;
74124;SDS011;62475;52.192;5.396;2023-07-13T15:52:50;3.10;;;1.20;;
74124;SDS011;62475;52.192;5.396;2023-07-13T15:55:19;3.67;;;1.20;;
74124;SDS011;62475;52.192;5.396;2023-07-13T15:57:46;4.57;;;1.30;;
74124;SDS011;62475;52.192;5.396;2023-07-13T16:02:48;2.67;;;1.35;;